Time;durP1;ratioP1;P1;durP2;ratioP2;P2;SDS_P1;SDS_P2;PMS_P1;PMS_P2;Temp;Humidity;BMP_temperature;BMP_pressure;BME280_temperature;BME280_humidity;BME280_pressure;Samples;Min_cycle;Max_cycle;Signal;HPM_P1;HPM_P2
2023/08/31 00:00:45;;;;;;;8.60;2.58;;;17.40;92.80;;;;;;4264191;27;20051;-59
2023/08/31 00:02:47;;;;;;;10.23;3.08;;;17.40;92.90;;;;;;4263341;27;20042;-59
2023/08/31 00:04:52;;;;;;;10.13;2.92;;;17.50;92.80;;;;;;4264332;27;20054;-59
2023/08/31 00:06:54;;;;;;;11.02;3.28;;;17.40;92.80;;;;;;4264427;27;20046;-59
2023/08/31 00:08:56;;;;;;;8.02;2.55;;;17.40;92.80;;;;;;4264492;27;20047;-57
2023/08/31 00:11:00;;;;;;;8.75;3.00;;;17.40;93.00;;;;;;4263510;27;20097;-59
2023/08/31 00:13:03;;;;;;;6.13;2.60;;;17.40;93.00;;;;;;4264351;27;20045;-59
2023/08/31 00:15:06;;;;;;;7.80;2.97;;;17.40;93.10;;;;;;4264219;27;20406;-59
2023/08/31 00:17:08;;;;;;;9.57;2.95;;;17.40;93.10;;;;;;4264121;27;20058;-59
2023/08/31 00:19:11;;;;;;;11.40;3.30;;;17.40;93.10;;;;;;4249006;27;20071;-59
2023/08/31 00:21:13;;;;;;;11.65;3.13;;;17.50;93.00;;;;;;4266864;27;20057;-59
2023/08/31 00:23:15;;;;;;;9.85;3.30;;;17.40;93.10;;;;;;4267525;27;20051;-59
2023/08/31 00:25:17;;;;;;;7.63;2.75;;;17.40;93.10;;;;;;4267488;27;20042;-59
2023/08/31 00:27:21;;;;;;;10.82;3.45;;;17.40;93.10;;;;;;4267536;27;20070;-59
2023/08/31 00:29:25;;;;;;;8.05;3.08;;;17.50;93.10;;;;;;4267380;27;20042;-59
2023/08/31 00:31:27;;;;;;;10.60;3.28;;;17.40;93.10;;;;;;4266261;27;20051;-59
2023/08/31 00:33:30;;;;;;;14.32;3.35;;;17.40;93.10;;;;;;4267479;27;20039;-58
2023/08/31 00:35:33;;;;;;;17.33;3.63;;;17.40;93.00;;;;;;4267292;27;20074;-59
2023/08/31 00:37:36;;;;;;;11.90;3.83;;;17.40;92.90;;;;;;4267374;27;20488;-58
2023/08/31 00:39:38;;;;;;;10.25;3.20;;;17.40;92.80;;;;;;4267189;27;20535;-59
2023/08/31 00:41:40;;;;;;;11.43;3.15;;;17.50;92.90;;;;;;4266298;27;20239;-59
2023/08/31 00:43:43;;;;;;;8.52;3.28;;;17.40;92.90;;;;;;4249070;27;20061;-59
2023/08/31 00:45:48;;;;;;;11.05;3.38;;;17.40;92.80;;;;;;4267388;27;20299;-59
2023/08/31 00:47:50;;;;;;;;;;;17.50;92.90;;;;;;4267595;27;20091;-59
2023/08/31 00:49:52;;;;;;;8.27;3.00;;;17.40;93.00;;;;;;4267383;27;19919;-59
2023/08/31 00:51:57;;;;;;;8.73;3.08;;;17.40;93.00;;;;;;4266089;27;20047;-59
2023/08/31 00:53:59;;;;;;;7.10;2.78;;;17.40;93.10;;;;;;4267430;27;20137;-60
2023/08/31 00:56:03;;;;;;;11.15;3.85;;;17.40;92.90;;;;;;4267218;27;20042;-58
2023/08/31 00:58:05;;;;;;;10.40;2.65;;;17.40;93.00;;;;;;4267071;27;20098;-58
2023/08/31 01:00:11;;;;;;;11.80;3.25;;;17.40;93.00;;;;;;4266543;27;20039;-58
2023/08/31 01:02:20;;;;;;;9.07;2.80;;;17.40;93.00;;;;;;4265903;27;20070;-59
2023/08/31 01:04:41;;;;;;;8.02;2.75;;;17.40;93.00;;;;;;4266758;27;20049;-59
2023/08/31 01:06:53;;;;;;;9.50;2.88;;;17.30;93.10;;;;;;4266990;27;20504;-59
2023/08/31 01:09:04;;;;;;;9.23;3.03;;;17.30;93.00;;;;;;4266862;27;20074;-60
2023/08/31 01:11:17;;;;;;;10.90;2.97;;;17.30;93.10;;;;;;4248203;27;20152;-61
2023/08/31 01:13:23;;;;;;;9.07;2.97;;;17.40;93.20;;;;;;4266587;27;20127;-59
2023/08/31 01:15:31;;;;;;;10.27;3.03;;;17.30;93.20;;;;;;4266429;27;20042;-58
2023/08/31 01:17:37;;;;;;;7.40;2.63;;;17.30;93.30;;;;;;4266684;27;20046;-59
2023/08/31 01:19:48;;;;;;;10.88;2.85;;;17.30;93.30;;;;;;4266705;27;20407;-59
2023/08/31 01:21:54;;;;;;;8.90;2.45;;;17.30;93.20;;;;;;4265649;27;20045;-58
2023/08/31 01:23:58;;;;;;;10.73;2.65;;;17.30;93.30;;;;;;4266723;27;20049;-58
2023/08/31 01:26:00;;;;;;;10.32;2.63;;;17.30;93.20;;;;;;4266439;27;20042;-59
2023/08/31 01:28:06;;;;;;;10.48;3.13;;;17.30;93.30;;;;;;4265859;27;20057;-59
2023/08/31 01:30:08;;;;;;;7.55;2.92;;;17.30;93.40;;;;;;4266577;27;20057;-59
2023/08/31 01:32:10;;;;;;;8.52;2.97;;;17.40;93.30;;;;;;4265289;27;20125;-58
2023/08/31 01:34:12;;;;;;;8.65;2.83;;;17.40;93.20;;;;;;4266472;27;20121;-58
2023/08/31 01:36:21;;;;;;;9.23;3.15;;;17.40;93.10;;;;;;4266281;27;20057;-58
2023/08/31 01:38:28;;;;;;;9.52;2.60;;;17.40;93.10;;;;;;4266238;27;20173;-59
2023/08/31 01:40:44;;;;;;;8.63;3.00;;;17.40;93.00;;;;;;4266322;27;20081;-59
2023/08/31 01:42:47;;;;;;;6.22;2.38;;;17.50;92.90;;;;;;4264760;27;20045;-59
2023/08/31 01:44:51;;;;;;;12.23;3.00;;;17.50;93.30;;;;;;4248041;27;20137;-59
2023/08/31 01:46:56;;;;;;;9.18;2.63;;;17.50;92.90;;;;;;4266026;27;20046;-59
2023/08/31 01:48:58;;;;;;;6.60;2.72;;;17.50;92.90;;;;;;4247508;27;20054;-59
2023/08/31 01:51:01;;;;;;;11.05;3.03;;;17.50;93.20;;;;;;4266200;27;20042;-59
2023/08/31 01:53:03;;;;;;;9.30;2.58;;;17.60;93.00;;;;;;4264779;27;20047;-59
2023/08/31 01:55:06;;;;;;;8.68;2.42;;;17.50;93.00;;;;;;4266184;27;20039;-59
2023/08/31 01:57:09;;;;;;;10.93;2.83;;;17.50;92.90;;;;;;4265515;27;20046;-60
2023/08/31 01:59:12;;;;;;;7.32;2.42;;;17.50;93.00;;;;;;4265905;27;20411;-59
2023/08/31 02:01:14;;;;;;;7.97;2.40;;;17.50;93.10;;;;;;4265736;27;20067;-60
2023/08/31 02:03:16;;;;;;;9.00;2.58;;;17.50;93.10;;;;;;4265226;27;20415;-59
2023/08/31 02:05:19;;;;;;;7.90;2.70;;;17.50;93.10;;;;;;4265838;27;20447;-59
2023/08/31 02:07:21;;;;;;;5.55;2.30;;;17.50;93.10;;;;;;4265657;27;20054;-59
2023/08/31 02:09:23;;;;;;;8.57;2.42;;;17.50;92.90;;;;;;4265523;27;20147;-59
2023/08/31 02:11:25;;;;;;;8.30;2.70;;;17.50;93.00;;;;;;4264807;27;20060;-60
2023/08/31 02:13:30;;;;;;;8.93;2.88;;;17.50;93.00;;;;;;4265273;27;20043;-60
2023/08/31 02:15:33;;;;;;;5.63;2.58;;;17.50;92.90;;;;;;4265706;27;20476;-59
2023/08/31 02:17:35;;;;;;;11.93;3.08;;;17.50;93.00;;;;;;4265888;27;20141;-62
2023/08/31 02:19:38;;;;;;;10.32;2.50;;;17.50;92.90;;;;;;4266145;27;20046;-58
2023/08/31 02:21:40;;;;;;;7.22;2.50;;;17.50;92.90;;;;;;4265302;27;20043;-60
2023/08/31 02:23:42;;;;;;;8.93;2.60;;;17.50;93.00;;;;;;4265382;27;20046;-60
2023/08/31 02:25:44;;;;;;;7.22;2.70;;;17.50;93.00;;;;;;4265426;27;20053;-60
2023/08/31 02:27:46;;;;;;;8.75;3.35;;;17.50;92.90;;;;;;4265257;27;20047;-57
2023/08/31 02:29:49;;;;;;;7.88;2.50;;;17.50;93.10;;;;;;4265627;27;20046;-57
2023/08/31 02:31:52;;;;;;;6.10;2.28;;;17.40;93.00;;;;;;4264519;27;20067;-57
2023/08/31 02:33:54;;;;;;;9.98;2.58;;;17.40;93.10;;;;;;4265474;27;20047;-56
2023/08/31 02:35:56;;;;;;;8.02;2.65;;;17.50;93.20;;;;;;4265518;27;20043;-56
2023/08/31 02:37:58;;;;;;;4.75;2.33;;;17.40;93.10;;;;;;4265457;27;20046;-56
2023/08/31 02:40:00;;;;;;;7.40;2.67;;;17.50;93.10;;;;;;4264638;27;20047;-57
2023/08/31 02:42:05;;;;;;;8.77;2.63;;;17.50;93.10;;;;;;4263772;27;20134;-57
2023/08/31 02:44:07;;;;;;;6.28;2.35;;;17.50;93.10;;;;;;4265254;27;20043;-54
2023/08/31 02:46:10;;;;;;;10.25;2.70;;;17.50;93.30;;;;;;4246894;27;20077;-54
2023/08/31 02:48:13;;;;;;;6.53;2.90;;;17.50;93.00;;;;;;4265109;27;20052;-56
2023/08/31 02:50:15;;;;;;;10.85;2.88;;;17.40;93.20;;;;;;4265270;27;20045;-57
2023/08/31 02:52:17;;;;;;;10.70;2.97;;;17.40;93.10;;;;;;4264028;27;20046;-56
2023/08/31 02:54:20;;;;;;;8.52;2.75;;;17.50;93.10;;;;;;4246610;27;20047;-56
2023/08/31 02:56:22;;;;;;;12.73;2.80;;;17.40;93.20;;;;;;4264767;27;20047;-57
2023/08/31 02:58:24;;;;;;;9.43;2.92;;;17.40;93.40;;;;;;4265014;27;20051;-56
2023/08/31 03:00:28;;;;;;;12.02;2.70;;;17.40;93.10;;;;;;4264869;27;20129;-57
2023/08/31 03:02:31;;;;;;;7.03;2.60;;;17.40;93.20;;;;;;4263855;27;20043;-57
2023/08/31 03:04:33;;;;;;;6.32;2.60;;;17.40;93.20;;;;;;4264795;27;20050;-57
2023/08/31 03:06:35;;;;;;;11.48;2.60;;;17.50;93.10;;;;;;4265027;27;20121;-59
2023/08/31 03:08:38;;;;;;;7.95;3.15;;;17.50;93.30;;;;;;4265019;27;20065;-60
2023/08/31 03:10:40;;;;;;;8.05;2.20;;;17.50;93.10;;;;;;4264639;27;20050;-59
2023/08/31 03:12:43;;;;;;;7.97;2.53;;;17.50;93.00;;;;;;4263449;27;20487;-60
2023/08/31 03:14:45;;;;;;;8.40;2.67;;;17.50;93.00;;;;;;4264530;27;20043;-60
2023/08/31 03:16:48;;;;;;;9.05;2.60;;;17.50;93.10;;;;;;4264922;27;20472;-57
2023/08/31 03:18:52;;;;;;;10.55;3.03;;;17.50;93.20;;;;;;4264406;27;20535;-57
2023/08/31 03:20:55;;;;;;;6.57;2.28;;;17.50;93.10;;;;;;4263560;27;20043;-56
2023/08/31 03:22:57;;;;;;;7.70;2.58;;;17.50;93.20;;;;;;4263929;27;20076;-56
2023/08/31 03:24:59;;;;;;;7.95;2.28;;;17.50;93.20;;;;;;4264546;27;20069;-57
2023/08/31 03:27:03;;;;;;;9.77;2.55;;;17.50;93.30;;;;;;4264879;27;20134;-57
2023/08/31 03:29:05;;;;;;;9.68;2.90;;;17.50;93.30;;;;;;4264631;27;20051;-58
2023/08/31 03:31:07;;;;;;;8.50;2.50;;;17.50;93.30;;;;;;4264912;27;20216;-57
2023/08/31 03:33:09;;;;;;;8.63;3.00;;;17.50;93.30;;;;;;4263548;27;20556;-62
2023/08/31 03:35:13;;;;;;;8.20;2.30;;;17.50;93.20;;;;;;4264608;27;20467;-57
2023/08/31 03:37:15;;;;;;;8.85;2.55;;;17.60;93.30;;;;;;4264738;27;20038;-56
2023/08/31 03:39:17;;;;;;;8.13;2.20;;;17.50;93.20;;;;;;4264475;27;20046;-56
2023/08/31 03:41:20;;;;;;;7.85;2.58;;;17.50;93.20;;;;;;4264955;27;20107;-55
2023/08/31 03:43:22;;;;;;;6.95;2.47;;;17.50;93.20;;;;;;4263920;27;20137;-58
2023/08/31 03:45:24;;;;;;;8.05;3.00;;;17.50;93.10;;;;;;4264763;27;20547;-55
2023/08/31 03:47:26;;;;;;;12.30;3.40;;;17.50;93.10;;;;;;4264495;27;20411;-55
2023/08/31 03:49:30;;;;;;;13.70;3.35;;;17.50;93.10;;;;;;4264431;27;20047;-56
2023/08/31 03:51:33;;;;;;;11.38;4.40;;;17.50;93.10;;;;;;4264938;27;20088;-56
2023/08/31 03:53:36;;;;;;;12.80;4.17;;;17.50;93.10;;;;;;4266770;27;20099;-55
2023/08/31 03:55:38;;;;;;;13.82;5.30;;;17.50;93.10;;;;;;4268206;27;20096;-55
2023/08/31 03:57:40;;;;;;;13.23;6.00;;;17.40;93.10;;;;;;4268045;27;20069;-55
2023/08/31 03:59:42;;;;;;;14.60;6.35;;;17.40;93.10;;;;;;4267840;27;20046;-55
2023/08/31 04:01:44;;;;;;;16.80;7.28;;;17.40;93.10;;;;;;4248655;27;20039;-56
2023/08/31 04:03:46;;;;;;;14.07;7.00;;;17.40;93.00;;;;;;4249283;27;20051;-55
2023/08/31 04:05:53;;;;;;;19.17;7.82;;;17.40;93.20;;;;;;4267871;27;20043;-56
2023/08/31 04:07:56;;;;;;;16.52;7.53;;;17.40;93.30;;;;;;4267397;27;20039;-56
2023/08/31 04:09:59;;;;;;;16.45;6.95;;;17.40;93.30;;;;;;4267730;27;20050;-56
2023/08/31 04:12:01;;;;;;;13.70;6.05;;;17.40;93.30;;;;;;4266788;27;20069;-56
2023/08/31 04:14:03;;;;;;;16.75;7.07;;;17.40;93.30;;;;;;4267680;27;20070;-56
2023/08/31 04:16:05;;;;;;;16.33;5.70;;;17.40;93.30;;;;;;4267635;27;20072;-56
2023/08/31 04:18:07;;;;;;;13.02;4.22;;;17.40;93.30;;;;;;4267403;27;20049;-56
2023/08/31 04:20:10;;;;;;;9.60;4.10;;;17.30;93.30;;;;;;4267788;27;20408;-56
2023/08/31 04:22:12;;;;;;;12.10;4.18;;;17.40;93.30;;;;;;4266166;27;20046;-56
2023/08/31 04:24:16;;;;;;;12.05;3.40;;;17.30;93.30;;;;;;4267584;27;20042;-56
2023/08/31 04:26:20;;;;;;;10.25;3.03;;;17.40;93.30;;;;;;4267413;27;20054;-56
2023/08/31 04:28:22;;;;;;;8.75;3.20;;;17.30;93.40;;;;;;4267629;27;20054;-56
2023/08/31 04:30:24;;;;;;;11.70;3.42;;;17.30;93.40;;;;;;4267925;27;20051;-57
2023/08/31 04:32:27;;;;;;;11.27;3.40;;;17.30;93.50;;;;;;4267586;27;20050;-57
2023/08/31 04:34:29;;;;;;;8.18;2.90;;;17.20;93.60;;;;;;4268429;27;20057;-56
2023/08/31 04:36:31;;;;;;;10.82;3.15;;;17.30;93.60;;;;;;4267755;27;20057;-57
2023/08/31 04:38:34;;;;;;;13.05;2.88;;;17.30;93.60;;;;;;4267309;27;20084;-59
2023/08/31 04:40:38;;;;;;;11.65;2.63;;;17.30;93.60;;;;;;4267432;27;20127;-58
2023/08/31 04:42:40;;;;;;;10.52;2.97;;;17.20;93.70;;;;;;4266457;27;20487;-58
2023/08/31 04:44:42;;;;;;;10.35;2.80;;;17.30;93.70;;;;;;4267136;27;20054;-56
2023/08/31 04:46:44;;;;;;;9.20;2.63;;;17.30;93.70;;;;;;4267109;27;20039;-56
2023/08/31 04:48:46;;;;;;;12.63;3.10;;;17.30;94.00;;;;;;4267190;27;20122;-56
2023/08/31 04:50:48;;;;;;;11.05;3.28;;;17.20;93.70;;;;;;4267373;27;20444;-56
2023/08/31 04:52:50;;;;;;;9.27;3.35;;;17.20;93.80;;;;;;4265759;27;20054;-56
2023/08/31 04:54:53;;;;;;;12.02;3.25;;;17.20;93.80;;;;;;4266964;27;20055;-58
2023/08/31 04:56:56;;;;;;;8.95;3.30;;;17.20;93.80;;;;;;4267301;27;20039;-57
2023/08/31 04:58:59;;;;;;;8.75;2.83;;;17.20;93.90;;;;;;4267117;27;20093;-56
2023/08/31 05:01:01;;;;;;;9.57;3.00;;;17.10;93.90;;;;;;4267134;27;20050;-55
2023/08/31 05:03:03;;;;;;;11.93;3.45;;;17.10;93.90;;;;;;4265374;27;20047;-57
2023/08/31 05:05:07;;;;;;;15.10;3.78;;;17.20;93.80;;;;;;4266931;27;20047;-56
2023/08/31 05:07:09;;;;;;;9.15;2.83;;;17.20;93.90;;;;;;4266372;27;20089;-56
2023/08/31 05:09:11;;;;;;;11.38;2.78;;;17.10;94.00;;;;;;4248486;27;20061;-56
2023/08/31 05:11:13;;;;;;;10.32;3.30;;;17.10;93.90;;;;;;4266978;27;20445;-56
2023/08/31 05:13:16;;;;;;;13.43;3.13;;;17.10;93.90;;;;;;4265597;27;20039;-56
2023/08/31 05:15:18;;;;;;;11.35;3.22;;;17.10;93.90;;;;;;4259395;27;20469;-55
2023/08/31 05:17:21;;;;;;;9.82;3.40;;;17.20;94.00;;;;;;4249585;27;20500;-57
2023/08/31 05:19:24;;;;;;;11.82;3.00;;;17.10;94.00;;;;;;4249240;27;20082;-58
2023/08/31 05:21:28;;;;;;;12.40;2.83;;;17.10;93.90;;;;;;4249155;27;20047;-58
2023/08/31 05:23:30;;;;;;;8.38;3.00;;;17.20;93.90;;;;;;4248417;27;20477;-58
2023/08/31 05:25:32;;;;;;;11.20;3.00;;;17.20;93.80;;;;;;4249208;27;20043;-58
2023/08/31 05:27:34;;;;;;;12.88;2.85;;;17.20;93.70;;;;;;4249651;27;20172;-58
2023/08/31 05:29:37;;;;;;;10.30;3.03;;;17.20;93.80;;;;;;4249431;27;20101;-58
2023/08/31 05:31:40;;;;;;;9.35;2.88;;;17.20;93.80;;;;;;4249293;27;20446;-58
2023/08/31 05:33:42;;;;;;;10.20;2.97;;;17.20;93.70;;;;;;4248321;27;20043;-58
2023/08/31 05:35:45;;;;;;;7.47;3.10;;;17.10;93.90;;;;;;4248836;27;20065;-58
2023/08/31 05:37:47;;;;;;;10.57;3.25;;;17.20;93.60;;;;;;4230897;28;20139;-58
2023/08/31 05:39:49;;;;;;;8.77;2.70;;;17.20;93.60;;;;;;4249115;27;20092;-60
2023/08/31 05:41:51;;;;;;;9.30;2.92;;;17.20;93.60;;;;;;4248975;27;20051;-60
2023/08/31 05:43:54;;;;;;;13.25;3.35;;;17.20;93.60;;;;;;4248241;27;20050;-61
2023/08/31 05:45:57;;;;;;;7.47;3.03;;;17.20;93.70;;;;;;4249157;27;20043;-60
2023/08/31 05:48:00;;;;;;;10.57;3.08;;;17.30;93.70;;;;;;4249097;27;20122;-61
2023/08/31 05:50:03;;;;;;;10.93;3.20;;;17.20;93.70;;;;;;4249040;27;20043;-58
2023/08/31 05:52:05;;;;;;;8.90;2.92;;;17.20;93.70;;;;;;4248621;27;20533;-58
2023/08/31 05:54:12;;;;;;;13.43;3.50;;;17.20;93.80;;;;;;4248637;27;20054;-58
2023/08/31 05:56:15;;;;;;;8.48;2.90;;;17.20;93.80;;;;;;4248965;27;20409;-58
2023/08/31 05:58:17;;;;;;;11.88;3.25;;;17.20;93.80;;;;;;4249116;27;20047;-57
2023/08/31 06:00:19;;;;;;;9.88;3.22;;;17.20;93.70;;;;;;4249258;27;20043;-57
2023/08/31 06:02:22;;;;;;;11.77;3.17;;;17.30;93.70;;;;;;4248020;27;20424;-60
2023/08/31 06:04:24;;;;;;;11.88;2.95;;;17.30;93.70;;;;;;4248328;27;20043;-60
2023/08/31 06:06:27;;;;;;;11.63;3.40;;;17.30;93.80;;;;;;4248735;27;20043;-60
2023/08/31 06:08:30;;;;;;;10.10;2.90;;;17.30;93.90;;;;;;4248757;27;20043;-58
2023/08/31 06:10:32;;;;;;;14.18;3.33;;;17.30;93.90;;;;;;4248530;27;20085;-57
2023/08/31 06:12:34;;;;;;;8.27;2.67;;;17.30;93.80;;;;;;4229416;28;20055;-58
2023/08/31 06:14:36;;;;;;;7.65;2.95;;;17.40;93.80;;;;;;4248465;27;20495;-57
2023/08/31 06:16:38;;;;;;;13.07;2.70;;;17.40;93.80;;;;;;4248709;27;20043;-58
2023/08/31 06:18:43;;;;;;;15.18;3.50;;;17.40;94.10;;;;;;4247980;27;20103;-58
2023/08/31 06:20:45;;;;;;;13.93;2.88;;;17.40;93.70;;;;;;4248433;27;20049;-58
2023/08/31 06:22:47;;;;;;;13.52;3.45;;;17.40;93.70;;;;;;4247626;27;20082;-58
2023/08/31 06:24:49;;;;;;;17.92;3.53;;;17.50;93.60;;;;;;4248605;27;20079;-60
2023/08/31 06:26:51;;;;;;;13.77;3.78;;;17.50;93.60;;;;;;4248472;27;20043;-58
2023/08/31 06:28:54;;;;;;;12.13;3.47;;;17.50;93.40;;;;;;4248410;27;20047;-61
2023/08/31 06:30:56;;;;;;;16.98;3.20;;;17.50;93.40;;;;;;4248342;27;20569;-60
2023/08/31 06:32:58;;;;;;;11.50;2.90;;;17.70;93.50;;;;;;4228721;28;20439;-60
2023/08/31 06:35:01;;;;;;;20.70;3.90;;;17.70;93.40;;;;;;4248371;27;20058;-58
2023/08/31 06:37:03;;;;;;;14.23;3.67;;;17.70;93.40;;;;;;4248518;27;20484;-58
2023/08/31 06:39:06;;;;;;;12.05;3.08;;;17.70;93.40;;;;;;4248134;27;20046;-58
2023/08/31 06:41:09;;;;;;;11.90;3.13;;;17.70;93.40;;;;;;4248248;27;20043;-58
2023/08/31 06:43:11;;;;;;;16.50;2.85;;;17.80;93.30;;;;;;4247191;27;20047;-58
2023/08/31 06:45:13;;;;;;;18.33;4.00;;;17.70;93.00;;;;;;4248111;27;20082;-57
2023/08/31 06:47:17;;;;;;;10.07;2.88;;;17.80;93.10;;;;;;4247838;27;20126;-60
2023/08/31 06:49:19;;;;;;;9.73;3.13;;;17.70;93.20;;;;;;4248039;27;20053;-60
2023/08/31 06:51:24;;;;;;;17.00;3.22;;;17.70;93.10;;;;;;4248075;27;20126;-61
2023/08/31 06:53:26;;;;;;;;;;;17.80;93.10;;;;;;4247174;27;20039;-60
2023/08/31 06:55:28;;;;;;;18.23;4.18;;;17.80;93.10;;;;;;4248156;27;19951;-61
2023/08/31 06:57:30;;;;;;;14.82;3.55;;;17.80;93.20;;;;;;4247954;27;20051;-61
2023/08/31 06:59:32;;;;;;;11.00;3.15;;;17.70;92.90;;;;;;4247819;27;20047;-61
2023/08/31 07:01:35;;;;;;;18.63;3.80;;;17.70;93.10;;;;;;4247921;27;20043;-60
2023/08/31 07:03:37;;;;;;;14.25;3.42;;;17.80;93.00;;;;;;4247080;27;20043;-60
2023/08/31 07:05:42;;;;;;;10.55;3.63;;;17.70;93.10;;;;;;4248050;27;20046;-61
2023/08/31 07:07:46;;;;;;;14.00;3.25;;;17.80;93.20;;;;;;4247910;27;20051;-61
2023/08/31 07:09:51;;;;;;;11.77;3.13;;;17.80;93.10;;;;;;4247958;27;20043;-61
2023/08/31 07:11:53;;;;;;;21.25;4.05;;;17.80;93.20;;;;;;4247649;27;20047;-61
2023/08/31 07:13:57;;;;;;;12.40;2.88;;;17.80;93.20;;;;;;4246433;27;20107;-61
2023/08/31 07:15:59;;;;;;;10.07;3.33;;;17.80;93.30;;;;;;4247611;27;20047;-60
2023/08/31 07:18:02;;;;;;;11.30;3.20;;;17.90;93.20;;;;;;4247531;27;20050;-60
2023/08/31 07:20:05;;;;;;;13.70;3.50;;;17.90;93.10;;;;;;4247638;27;20096;-61
2023/08/31 07:22:08;;;;;;;12.65;3.47;;;18.00;93.10;;;;;;4247658;27;20140;-58
2023/08/31 07:24:11;;;;;;;14.05;3.15;;;18.00;93.10;;;;;;4246661;27;20055;-58
2023/08/31 07:26:13;;;;;;;12.40;3.25;;;18.10;93.10;;;;;;4247561;27;20094;-61
2023/08/31 07:28:15;;;;;;;15.73;3.30;;;18.10;92.90;;;;;;4249356;27;20074;-62
2023/08/31 07:30:17;;;;;;;11.77;3.13;;;18.20;92.70;;;;;;4231246;28;20114;-60
2023/08/31 07:32:19;;;;;;;16.42;3.40;;;18.10;92.70;;;;;;4247470;27;20043;-58
2023/08/31 07:34:21;;;;;;;13.32;3.75;;;18.20;92.70;;;;;;4247321;28;20051;-58
2023/08/31 07:36:24;;;;;;;8.27;2.85;;;18.20;92.60;;;;;;4247905;28;20044;-58
2023/08/31 07:38:27;;;;;;;18.23;9.52;;;18.30;93.00;;;;;;4247481;28;20063;-58
2023/08/31 07:40:30;;;;;;;21.75;9.90;;;18.30;92.80;;;;;;4247674;28;20072;-58
2023/08/31 07:42:32;;;;;;;16.27;3.28;;;18.40;92.70;;;;;;4246797;28;20050;-59
2023/08/31 07:44:34;;;;;;;13.07;3.50;;;18.50;92.60;;;;;;4247486;28;20040;-56
2023/08/31 07:46:36;;;;;;;16.65;4.10;;;18.50;92.50;;;;;;4246958;28;20469;-56
2023/08/31 07:48:39;;;;;;;14.15;3.28;;;18.60;92.50;;;;;;4247497;28;20047;-55
2023/08/31 07:50:41;;;;;;;12.48;3.30;;;18.60;92.30;;;;;;4247546;28;20047;-58
2023/08/31 07:52:44;;;;;;;13.85;3.20;;;18.60;92.20;;;;;;4246561;28;20254;-63
2023/08/31 07:54:46;;;;;;;10.27;3.28;;;18.70;92.30;;;;;;4246770;28;20047;-58
2023/08/31 07:56:49;;;;;;;14.10;3.10;;;18.70;92.10;;;;;;4247307;28;20400;-59
2023/08/31 07:58:52;;;;;;;15.38;3.00;;;18.80;92.00;;;;;;4247522;28;20438;-60
2023/08/31 08:00:54;;;;;;;12.32;3.63;;;18.90;92.20;;;;;;4246944;28;20058;-58
2023/08/31 08:02:57;;;;;;;10.93;3.30;;;19.00;91.90;;;;;;4246271;28;20064;-58
2023/08/31 08:04:59;;;;;;;15.82;3.55;;;19.10;91.80;;;;;;4247357;28;20073;-58
2023/08/31 08:07:03;;;;;;;13.93;3.50;;;19.30;91.70;;;;;;4229239;28;20063;-59
2023/08/31 08:09:05;;;;;;;18.40;4.35;;;19.40;91.60;;;;;;4247342;28;20051;-56
2023/08/31 08:11:08;;;;;;;24.35;4.80;;;19.40;91.30;;;;;;4247379;28;20078;-61
2023/08/31 08:13:11;;;;;;;12.93;3.25;;;19.40;91.30;;;;;;4246283;28;20130;-58
2023/08/31 08:15:14;;;;;;;15.25;3.78;;;19.40;91.40;;;;;;4246702;27;20047;-58
2023/08/31 08:17:16;;;;;;;14.90;3.88;;;19.50;91.40;;;;;;4247321;28;20043;-60
2023/08/31 08:19:22;;;;;;;18.45;3.50;;;19.50;91.10;;;;;;4246672;28;20058;-60
2023/08/31 08:21:24;;;;;;;14.70;3.53;;;19.50;91.00;;;;;;4246989;28;20134;-60
2023/08/31 08:23:26;;;;;;;22.20;4.13;;;19.50;90.70;;;;;;4245898;28;20074;-60
2023/08/31 08:25:28;;;;;;;11.80;3.22;;;19.50;90.50;;;;;;4247370;28;20051;-57
2023/08/31 08:27:31;;;;;;;15.35;3.25;;;19.60;90.10;;;;;;4247126;28;20541;-58
2023/08/31 08:29:35;;;;;;;23.50;3.67;;;19.60;90.40;;;;;;4246895;28;20039;-59
2023/08/31 08:31:37;;;;;;;13.15;3.65;;;19.60;90.60;;;;;;4247220;28;20122;-60
2023/08/31 08:33:39;;;;;;;19.35;3.53;;;19.60;90.70;;;;;;4245937;28;20073;-59
2023/08/31 08:35:41;;;;;;;24.17;4.28;;;19.70;90.40;;;;;;4247221;28;20047;-57
2023/08/31 08:37:43;;;;;;;15.38;3.17;;;19.70;90.60;;;;;;4247186;27;20043;-57
2023/08/31 08:39:48;;;;;;;11.80;3.95;;;19.80;90.50;;;;;;4249467;27;20047;-57
2023/08/31 08:41:52;;;;;;;25.30;12.50;;;19.80;90.50;;;;;;4250143;27;20510;-57
2023/08/31 08:43:59;;;;;;;18.05;4.20;;;19.80;90.30;;;;;;4248560;27;20051;-59
2023/08/31 08:46:05;;;;;;;10.77;3.20;;;19.90;90.00;;;;;;4250160;27;20051;-60
2023/08/31 08:48:09;;;;;;;10.98;3.05;;;19.90;89.00;;;;;;4249971;27;20043;-59
2023/08/31 08:50:12;;;;;;;13.85;3.28;;;19.90;88.40;;;;;;4249999;27;20051;-59
2023/08/31 08:52:15;;;;;;;13.88;3.83;;;19.90;88.00;;;;;;4250116;27;20055;-59
2023/08/31 08:54:18;;;;;;;11.38;3.55;;;19.80;88.90;;;;;;4248824;27;20066;-59
2023/08/31 08:56:20;;;;;;;14.07;3.63;;;19.90;89.50;;;;;;4249743;27;20073;-59
2023/08/31 08:58:22;;;;;;;13.13;3.10;;;19.90;89.10;;;;;;4249708;27;20118;-59
2023/08/31 09:00:25;;;;;;;14.65;3.40;;;20.00;89.40;;;;;;4249952;27;20150;-59
2023/08/31 09:02:29;;;;;;;15.43;3.92;;;20.00;89.40;;;;;;4249940;27;20051;-57
2023/08/31 09:04:31;;;;;;;11.77;3.45;;;20.10;90.00;;;;;;4230598;28;20112;-57
2023/08/31 09:06:34;;;;;;;8.05;3.22;;;20.00;88.80;;;;;;4250029;27;20469;-59
2023/08/31 09:08:41;;;;;;;17.70;3.90;;;20.00;90.00;;;;;;4249844;27;20407;-57
2023/08/31 09:10:44;;;;;;;9.25;3.30;;;20.10;90.10;;;;;;4249656;27;20074;-59
2023/08/31 09:12:46;;;;;;;12.02;3.00;;;20.00;89.90;;;;;;4232714;28;20126;-61
2023/08/31 09:14:58;;;;;;;11.27;3.33;;;20.10;89.60;;;;;;4258918;27;20396;-61
2023/08/31 09:17:00;;;;;;;12.05;3.50;;;20.10;89.30;;;;;;4266346;27;20046;-60
2023/08/31 09:19:18;;;;;;;13.10;3.20;;;20.10;88.70;;;;;;4264871;27;20050;-59
2023/08/31 09:21:21;;;;;;;15.18;5.35;;;20.20;88.40;;;;;;4266352;27;20118;-59
2023/08/31 09:23:24;;;;;;;10.85;3.60;;;20.10;88.80;;;;;;4264274;27;20086;-59
2023/08/31 09:25:26;;;;;;;13.65;3.95;;;20.10;89.40;;;;;;4254441;27;20046;-59
2023/08/31 09:27:28;;;;;;;25.48;4.20;;;20.20;89.90;;;;;;4257812;27;20104;-57
2023/08/31 09:29:31;;;;;;;16.02;3.92;;;20.20;89.40;;;;;;4251642;27;20138;-58
2023/08/31 09:31:33;;;;;;;13.95;3.45;;;20.20;89.40;;;;;;4259942;27;20141;-57
2023/08/31 09:33:36;;;;;;;15.15;4.00;;;20.20;89.40;;;;;;4254320;27;20058;-58
2023/08/31 09:35:40;;;;;;;14.70;3.78;;;20.30;89.60;;;;;;4240768;27;20047;-58
2023/08/31 09:37:56;;;;;;;34.83;5.15;;;20.50;89.50;;;;;;4258392;27;20034;-59
2023/08/31 09:40:02;;;;;;;15.57;3.30;;;20.60;87.40;;;;;;4262361;27;20042;-56
2023/08/31 09:42:05;;;;;;;13.45;3.05;;;20.60;87.80;;;;;;4251354;27;20035;-55
2023/08/31 09:44:18;;;;;;;16.52;4.28;;;20.60;88.50;;;;;;4252841;27;20034;-55
2023/08/31 09:46:21;;;;;;;16.95;5.38;;;20.70;88.50;;;;;;4265621;27;20412;-55
2023/08/31 09:48:24;;;;;;;19.45;4.28;;;20.70;88.30;;;;;;4258919;27;20125;-56
2023/08/31 09:50:28;;;;;;;14.20;3.35;;;20.60;88.20;;;;;;4254005;27;20118;-57
2023/08/31 09:52:32;;;;;;;11.07;2.85;;;20.50;88.40;;;;;;4234649;27;20043;-58
2023/08/31 09:54:35;;;;;;;12.82;3.78;;;20.50;88.90;;;;;;4260191;27;20120;-58
2023/08/31 09:56:37;;;;;;;18.77;3.95;;;20.50;89.60;;;;;;4255629;27;20047;-58
2023/08/31 09:58:39;;;;;;;11.82;3.30;;;20.50;89.70;;;;;;4250673;27;20122;-58
2023/08/31 10:00:43;;;;;;;13.45;3.95;;;20.50;90.30;;;;;;4260866;27;20381;-58
2023/08/31 10:02:46;;;;;;;7.75;3.03;;;20.40;90.50;;;;;;4260666;27;20473;-58
2023/08/31 10:04:52;;;;;;;14.67;4.07;;;20.40;90.80;;;;;;4255452;27;20404;-56
2023/08/31 10:06:54;;;;;;;17.20;4.05;;;20.40;91.00;;;;;;4254892;27;20475;-56
2023/08/31 10:08:59;;;;;;;12.55;3.35;;;20.30;91.10;;;;;;4257239;27;20051;-58
2023/08/31 10:11:03;;;;;;;11.90;3.35;;;20.30;91.40;;;;;;4250846;27;20054;-58
2023/08/31 10:13:06;;;;;;;18.60;3.67;;;20.30;91.40;;;;;;4248416;27;20088;-58
2023/08/31 10:15:10;;;;;;;11.75;3.60;;;20.30;91.30;;;;;;4262489;27;20530;-58
2023/08/31 10:17:13;;;;;;;17.25;3.60;;;20.30;91.50;;;;;;4260134;27;20046;-58
2023/08/31 10:19:15;;;;;;;11.70;3.80;;;20.40;92.00;;;;;;4252470;27;20047;-58
2023/08/31 10:21:18;;;;;;;17.63;3.38;;;20.40;91.90;;;;;;4248783;27;20043;-56
2023/08/31 10:23:21;;;;;;;12.18;3.65;;;20.40;92.00;;;;;;4247682;27;20073;-57
2023/08/31 10:25:26;;;;;;;18.38;7.85;;;20.50;92.40;;;;;;4258436;27;20422;-56
2023/08/31 10:27:29;;;;;;;13.00;3.55;;;20.50;92.10;;;;;;4247611;27;20050;-56
2023/08/31 10:29:31;;;;;;;12.20;3.28;;;20.50;92.20;;;;;;4237046;27;20128;-56
2023/08/31 10:31:34;;;;;;;15.63;4.47;;;20.40;92.60;;;;;;4251638;27;20046;-55
2023/08/31 10:33:40;;;;;;;15.70;3.50;;;20.40;92.50;;;;;;4247169;27;20051;-55
2023/08/31 10:35:49;;;;;;;11.50;3.58;;;20.30;92.30;;;;;;4258083;27;20119;-56